Time;durP1;ratioP1;P1;durP2;ratioP2;P2;SDS_P1;SDS_P2;PMS_P1;PMS_P2;Temp;Humidity;BMP_temperature;BMP_pressure;BME280_temperature;BME280_humidity;BME280_pressure;Samples;Min_cycle;Max_cycle;Signal;HPM_P1;HPM_P2
2022/07/19 00:02:16;;;;;;;8.10;4.17;;;;;;;;;;5049101;28;20221;-65
2022/07/19 00:04:49;;;;;;;6.87;4.30;;;;;;;;;;5045173;28;20321;-65
2022/07/19 00:07:24;;;;;;;8.43;4.90;;;;;;;;;;5049406;28;20267;-65
2022/07/19 00:09:55;;;;;;;8.97;4.20;;;;;;;;;;5049109;28;20282;-65
2022/07/19 00:12:26;;;;;;;7.70;4.40;;;;;;;;;;5054391;28;20200;-65
2022/07/19 00:15:02;;;;;;;11.53;4.47;;;;;;;;;;5050243;28;20206;-65
2022/07/19 00:17:44;;;;;;;11.20;4.40;;;;;;;;;;5045028;28;20604;-65
2022/07/19 00:20:20;;;;;;;9.10;4.57;;;;;;;;;;5031592;28;20201;-65
2022/07/19 00:22:54;;;;;;;11.67;5.03;;;;;;;;;;5047694;28;20203;-65
2022/07/19 00:25:25;;;;;;;10.50;4.60;;;;;;;;;;5055799;28;20210;-65
2022/07/19 00:27:57;;;;;;;12.17;4.77;;;;;;;;;;5044336;28;20198;-65
2022/07/19 00:30:30;;;;;;;6.53;4.27;;;;;;;;;;5048212;28;20623;-65
2022/07/19 00:33:04;;;;;;;12.43;4.33;;;;;;;;;;5031521;28;20659;-65
2022/07/19 00:35:32;;;;;;;11.07;5.00;;;;;;;;;;5051291;28;20201;-65
2022/07/19 00:38:06;;;;;;;8.63;4.67;;;;;;;;;;5046238;28;20199;-65
2022/07/19 00:40:40;;;;;;;10.23;4.77;;;;;;;;;;5029617;28;20224;-65
2022/07/19 00:43:18;;;;;;;9.77;4.87;;;;;;;;;;5056474;28;20426;-65
2022/07/19 00:45:49;;;;;;;7.90;4.47;;;;;;;;;;5044485;28;20214;-65
2022/07/19 00:48:37;;;;;;;11.50;4.73;;;;;;;;;;5048024;28;20276;-66
2022/07/19 00:51:06;;;;;;;10.33;4.87;;;;;;;;;;5054325;28;20564;-67
2022/07/19 00:53:39;;;;;;;8.00;4.10;;;;;;;;;;5026648;28;20206;-67
2022/07/19 00:56:12;;;;;;;8.50;4.30;;;;;;;;;;5049550;28;20264;-67
2022/07/19 00:58:42;;;;;;;7.40;4.60;;;;;;;;;;5058429;28;20193;-67
2022/07/19 01:01:12;;;;;;;6.97;4.40;;;;;;;;;;5032420;28;20207;-67
2022/07/19 01:03:48;;;;;;;6.93;4.43;;;;;;;;;;5025037;28;20206;-67
2022/07/19 01:06:21;;;;;;;9.87;4.27;;;;;;;;;;5047659;28;20210;-67
2022/07/19 01:08:52;;;;;;;9.17;4.63;;;;;;;;;;5042899;28;20209;-67
2022/07/19 01:11:26;;;;;;;7.87;4.67;;;;;;;;;;5020865;28;20198;-67
2022/07/19 01:13:58;;;;;;;5.77;4.43;;;;;;;;;;5029100;28;20202;-66
2022/07/19 01:16:27;;;;;;;7.53;3.90;;;;;;;;;;5035375;28;20859;-67
2022/07/19 01:19:00;;;;;;;5.10;4.60;;;;;;;;;;5053691;28;20226;-66
2022/07/19 01:21:31;;;;;;;7.17;4.40;;;;;;;;;;5055672;28;20186;-67
2022/07/19 01:24:04;;;;;;;5.93;4.07;;;;;;;;;;5048167;28;20229;-67
2022/07/19 01:26:40;;;;;;;5.27;4.47;;;;;;;;;;5047161;28;20233;-67
2022/07/19 01:29:16;;;;;;;8.00;4.63;;;;;;;;;;5044278;28;20650;-66
2022/07/19 01:31:47;;;;;;;6.93;3.90;;;;;;;;;;5053729;28;20217;-67
2022/07/19 01:34:19;;;;;;;7.13;3.90;;;;;;;;;;5048614;28;20213;-67
2022/07/19 01:36:50;;;;;;;7.03;3.90;;;;;;;;;;5050244;28;20194;-67
2022/07/19 01:39:22;;;;;;;9.40;4.43;;;;;;;;;;5047795;28;20674;-67
2022/07/19 01:41:52;;;;;;;6.93;3.83;;;;;;;;;;5041646;28;20212;-67
2022/07/19 01:44:20;;;;;;;6.03;3.90;;;;;;;;;;5046610;28;20548;-67
2022/07/19 01:46:51;;;;;;;7.57;4.10;;;;;;;;;;5053362;28;20218;-66
2022/07/19 01:49:23;;;;;;;8.00;4.50;;;;;;;;;;5055308;28;20247;-66
2022/07/19 01:51:54;;;;;;;6.50;4.53;;;;;;;;;;5050122;28;20230;-67
2022/07/19 01:54:25;;;;;;;7.57;4.43;;;;;;;;;;5052892;28;20995;-67
2022/07/19 01:56:57;;;;;;;5.30;3.90;;;;;;;;;;5053461;28;20210;-66
2022/07/19 01:59:28;;;;;;;6.33;3.97;;;;;;;;;;5046065;28;20201;-67
2022/07/19 02:01:59;;;;;;;5.63;4.50;;;;;;;;;;5044588;28;20275;-66
2022/07/19 02:04:33;;;;;;;8.60;4.60;;;;;;;;;;5044384;28;20284;-67
2022/07/19 02:07:04;;;;;;;6.80;4.43;;;;;;;;;;5034288;28;20551;-66
2022/07/19 02:09:35;;;;;;;8.13;4.27;;;;;;;;;;5052112;28;20209;-66
2022/07/19 02:12:04;;;;;;;4.00;3.70;;;;;;;;;;5027071;28;20844;-67
2022/07/19 02:14:36;;;;;;;8.87;4.43;;;;;;;;;;5028101;28;20202;-67
2022/07/19 02:17:08;;;;;;;4.97;3.77;;;;;;;;;;5049973;28;20219;-67
2022/07/19 02:19:44;;;;;;;7.67;4.33;;;;;;;;;;5045700;28;20219;-66
2022/07/19 02:22:18;;;;;;;8.23;4.30;;;;;;;;;;5048601;28;20203;-66
2022/07/19 02:25:00;;;;;;;6.30;3.80;;;;;;;;;;5049666;28;20271;-67
2022/07/19 02:27:31;;;;;;;5.40;4.30;;;;;;;;;;5046556;28;20205;-66
2022/07/19 02:30:04;;;;;;;7.27;4.20;;;;;;;;;;5045506;28;20569;-66
2022/07/19 02:32:45;;;;;;;6.03;4.23;;;;;;;;;;5048957;28;20190;-66
2022/07/19 02:35:25;;;;;;;8.10;4.17;;;;;;;;;;5043535;28;20213;-66
2022/07/19 02:38:02;;;;;;;6.03;4.50;;;;;;;;;;5043930;28;20206;-67
2022/07/19 02:40:33;;;;;;;5.13;4.20;;;;;;;;;;5044982;28;20562;-66
2022/07/19 02:43:04;;;;;;;4.67;3.93;;;;;;;;;;5031206;28;20202;-66
2022/07/19 02:45:34;;;;;;;4.83;4.10;;;;;;;;;;5046553;28;20567;-66
2022/07/19 02:48:07;;;;;;;5.90;3.83;;;;;;;;;;5028982;28;20214;-66
2022/07/19 02:50:38;;;;;;;4.73;3.53;;;;;;;;;;5046413;28;20238;-66
2022/07/19 02:53:06;;;;;;;4.93;3.77;;;;;;;;;;5007809;28;20589;-66
2022/07/19 02:55:49;;;;;;;6.10;3.60;;;;;;;;;;5026049;28;20213;-65
2022/07/19 02:58:19;;;;;;;5.73;3.63;;;;;;;;;;5046728;28;20206;-66
2022/07/19 03:01:16;;;;;;;5.03;3.60;;;;;;;;;;5046575;28;20217;-66
2022/07/19 03:03:50;;;;;;;4.90;4.20;;;;;;;;;;5020991;28;20195;-66
2022/07/19 03:06:25;;;;;;;6.07;4.20;;;;;;;;;;5039638;28;20203;-66
2022/07/19 03:08:59;;;;;;;5.80;3.53;;;;;;;;;;5049674;28;20198;-67
2022/07/19 03:11:40;;;;;;;4.17;3.80;;;;;;;;;;5051495;28;20189;-67
2022/07/19 03:14:10;;;;;;;4.57;3.90;;;;;;;;;;5036536;28;20202;-65
2022/07/19 03:16:40;;;;;;;4.77;3.53;;;;;;;;;;5045758;28;20210;-66
2022/07/19 03:19:12;;;;;;;8.77;4.13;;;;;;;;;;5049415;28;20209;-66
2022/07/19 03:21:42;;;;;;;5.30;3.80;;;;;;;;;;5035578;28;20310;-66
2022/07/19 03:24:14;;;;;;;4.83;3.83;;;;;;;;;;5045372;28;20249;-67
2022/07/19 03:26:44;;;;;;;5.67;4.20;;;;;;;;;;5049702;28;20268;-66
2022/07/19 03:29:14;;;;;;;6.47;3.77;;;;;;;;;;5048387;28;20237;-66
2022/07/19 03:31:52;;;;;;;4.90;4.20;;;;;;;;;;5046385;28;20214;-66
2022/07/19 03:34:21;;;;;;;4.70;3.83;;;;;;;;;;5054238;28;20211;-66
2022/07/19 03:36:48;;;;;;;4.47;4.07;;;;;;;;;;5049796;28;20206;-67
2022/07/19 03:39:20;;;;;;;5.47;4.13;;;;;;;;;;5050085;28;20217;-67
2022/07/19 03:41:48;;;;;;;5.00;4.03;;;;;;;;;;5039235;28;20221;-66
2022/07/19 03:44:29;;;;;;;6.17;4.30;;;;;;;;;;5052925;28;20259;-66
2022/07/19 03:47:00;;;;;;;5.20;4.30;;;;;;;;;;5054847;28;20238;-66
2022/07/19 03:49:32;;;;;;;8.13;4.73;;;;;;;;;;5043533;28;20202;-66
2022/07/19 03:52:06;;;;;;;4.90;3.90;;;;;;;;;;5052596;28;20242;-66
2022/07/19 03:54:45;;;;;;;8.37;4.50;;;;;;;;;;5035308;28;20190;-66
2022/07/19 03:57:16;;;;;;;5.10;4.60;;;;;;;;;;5054142;28;20190;-64
2022/07/19 03:59:48;;;;;;;7.33;5.00;;;;;;;;;;5027519;28;20548;-64
2022/07/19 04:02:22;;;;;;;7.00;4.60;;;;;;;;;;5029704;28;20220;-64
2022/07/19 04:05:05;;;;;;;6.60;5.00;;;;;;;;;;5043521;28;20234;-65
2022/07/19 04:07:38;;;;;;;6.70;5.30;;;;;;;;;;5050948;28;20210;-67
2022/07/19 04:10:11;;;;;;;9.27;5.23;;;;;;;;;;5036089;28;20197;-64
2022/07/19 04:12:41;;;;;;;6.63;5.33;;;;;;;;;;5062048;28;20206;-64
2022/07/19 04:15:09;;;;;;;8.33;5.20;;;;;;;;;;5055969;28;20206;-64
2022/07/19 04:17:48;;;;;;;10.23;5.37;;;;;;;;;;5050540;28;20275;-63
2022/07/19 04:20:23;;;;;;;9.87;6.33;;;;;;;;;;5038412;28;20762;-64
2022/07/19 04:22:56;;;;;;;15.17;5.80;;;;;;;;;;5048585;28;20199;-64
2022/07/19 04:25:27;;;;;;;7.53;5.40;;;;;;;;;;5048279;28;20246;-66
2022/07/19 04:27:55;;;;;;;9.70;6.17;;;;;;;;;;5025374;28;20191;-64
2022/07/19 04:30:25;;;;;;;9.43;6.13;;;;;;;;;;5034256;28;20214;-65
2022/07/19 04:32:55;;;;;;;8.90;6.20;;;;;;;;;;5033935;28;20193;-64
2022/07/19 04:35:28;;;;;;;10.77;5.80;;;;;;;;;;5053723;28;20197;-65
2022/07/19 04:37:57;;;;;;;8.30;5.80;;;;;;;;;;5051758;28;20202;-64
2022/07/19 04:40:38;;;;;;;11.63;6.30;;;;;;;;;;5045327;28;20283;-67
2022/07/19 04:43:08;;;;;;;9.40;6.20;;;;;;;;;;5032611;28;20620;-67
2022/07/19 04:45:44;;;;;;;9.57;5.70;;;;;;;;;;5039211;28;20238;-64
2022/07/19 04:48:25;;;;;;;14.33;6.63;;;;;;;;;;5049455;28;20209;-64
2022/07/19 04:50:57;;;;;;;12.20;6.50;;;;;;;;;;5047784;28;20256;-66
2022/07/19 04:53:28;;;;;;;12.07;5.93;;;;;;;;;;5047190;28;20260;-66
2022/07/19 04:56:08;;;;;;;11.53;6.47;;;;;;;;;;5049253;28;20225;-66
2022/07/19 04:58:48;;;;;;;8.27;6.43;;;;;;;;;;5047480;28;20198;-66
2022/07/19 05:01:19;;;;;;;14.33;6.57;;;;;;;;;;5050598;28;20190;-66
2022/07/19 05:03:48;;;;;;;9.03;5.70;;;;;;;;;;5043476;28;20492;-67
2022/07/19 05:06:32;;;;;;;13.23;5.80;;;;;;;;;;5047853;28;20226;-66
2022/07/19 05:09:03;;;;;;;6.63;4.50;;;;;;;;;;5043676;28;20199;-66
2022/07/19 05:11:32;;;;;;;10.90;4.10;;;;;;;;;;5044913;28;20190;-66
2022/07/19 05:14:01;;;;;;;8.20;4.03;;;;;;;;;;5046813;28;20198;-65
2022/07/19 05:16:34;;;;;;;5.67;4.47;;;;;;;;;;5042965;28;20218;-65
2022/07/19 05:19:14;;;;;;;8.93;5.20;;;;;;;;;;5047336;28;20648;-65
2022/07/19 05:21:50;;;;;;;9.50;5.70;;;;;;;;;;5045015;28;20205;-64
2022/07/19 05:24:24;;;;;;;9.13;5.90;;;;;;;;;;5038433;28;20201;-66
2022/07/19 05:26:57;;;;;;;7.10;5.77;;;;;;;;;;5029906;28;20773;-66
2022/07/19 05:29:30;;;;;;;7.60;5.77;;;;;;;;;;5042901;28;20202;-66
2022/07/19 05:32:04;;;;;;;9.90;6.50;;;;;;;;;;5048659;28;20332;-65
2022/07/19 05:34:36;;;;;;;9.77;6.83;;;;;;;;;;5049001;28;20193;-67
2022/07/19 05:37:09;;;;;;;8.60;6.83;;;;;;;;;;5045432;28;20648;-67
2022/07/19 05:39:39;;;;;;;10.67;7.00;;;;;;;;;;5031417;28;20194;-66
2022/07/19 05:42:08;;;;;;;12.23;7.07;;;;;;;;;;5043478;28;20215;-64
2022/07/19 05:44:46;;;;;;;12.00;6.80;;;;;;;;;;5046803;28;20260;-65
2022/07/19 05:47:17;;;;;;;9.60;7.20;;;;;;;;;;5056274;28;20237;-65
2022/07/19 05:49:48;;;;;;;9.73;6.37;;;;;;;;;;5049844;28;20198;-67
2022/07/19 05:52:32;;;;;;;10.00;6.30;;;;;;;;;;5048723;28;20281;-64
2022/07/19 05:55:06;;;;;;;10.83;6.43;;;;;;;;;;5052360;28;20202;-69
2022/07/19 05:57:34;;;;;;;9.80;7.30;;;;;;;;;;5051039;28;20198;-70
2022/07/19 06:00:04;;;;;;;9.33;6.70;;;;;;;;;;5048277;28;20265;-69
2022/07/19 06:02:36;;;;;;;9.33;5.80;;;;;;;;;;5050335;28;20256;-63
2022/07/19 06:05:08;;;;;;;7.80;5.43;;;;;;;;;;5029617;28;20218;-61
2022/07/19 06:07:39;;;;;;;6.93;4.83;;;;;;;;;;5034515;28;20269;-64
2022/07/19 06:10:12;;;;;;;6.77;4.40;;;;;;;;;;5042211;28;20199;-64
2022/07/19 06:12:56;;;;;;;6.50;4.73;;;;;;;;;;5054963;28;20194;-65
2022/07/19 06:15:24;;;;;;;7.77;4.43;;;;;;;;;;5051826;28;20187;-62
2022/07/19 06:17:54;;;;;;;6.07;3.83;;;;;;;;;;5040853;28;20268;-63
2022/07/19 06:20:23;;;;;;;4.77;4.10;;;;;;;;;;5054076;28;20676;-65
2022/07/19 06:22:53;;;;;;;4.87;4.00;;;;;;;;;;5054304;28;20202;-65
2022/07/19 06:25:24;;;;;;;5.63;4.23;;;;;;;;;;5050017;28;20198;-63
2022/07/19 06:27:57;;;;;;;5.03;3.90;;;;;;;;;;5038078;28;20238;-64
2022/07/19 06:30:33;;;;;;;5.40;3.90;;;;;;;;;;5046815;28;20220;-62
2022/07/19 06:33:06;;;;;;;4.33;3.90;;;;;;;;;;5053402;28;20825;-63
2022/07/19 06:35:36;;;;;;;7.27;3.90;;;;;;;;;;5020367;28;20206;-63
2022/07/19 06:38:06;;;;;;;4.37;3.60;;;;;;;;;;5041245;28;20214;-62
2022/07/19 06:40:49;;;;;;;6.83;3.70;;;;;;;;;;5043924;28;20651;-65
2022/07/19 06:43:21;;;;;;;7.27;3.87;;;;;;;;;;5046821;28;20191;-65
2022/07/19 06:45:52;;;;;;;4.27;3.40;;;;;;;;;;5044241;28;20860;-63
2022/07/19 06:48:24;;;;;;;5.23;3.50;;;;;;;;;;5049119;28;20182;-63
2022/07/19 06:50:56;;;;;;;6.20;3.27;;;;;;;;;;5060815;28;20226;-64
2022/07/19 06:53:30;;;;;;;4.00;3.30;;;;;;;;;;5053388;28;20210;-64
2022/07/19 06:56:05;;;;;;;5.50;3.80;;;;;;;;;;5047272;28;20210;-62
2022/07/19 06:58:35;;;;;;;6.53;3.10;;;;;;;;;;5039925;28;20207;-62
2022/07/19 07:01:11;;;;;;;3.63;3.10;;;;;;;;;;5051529;28;20198;-64
2022/07/19 07:03:43;;;;;;;4.93;3.20;;;;;;;;;;5051278;28;20202;-64
2022/07/19 07:06:15;;;;;;;4.40;3.57;;;;;;;;;;5044624;28;20233;-63
2022/07/19 07:08:46;;;;;;;3.97;3.20;;;;;;;;;;5049975;28;20640;-64
2022/07/19 07:11:16;;;;;;;3.30;3.00;;;;;;;;;;5053523;28;20193;-64
2022/07/19 07:13:50;;;;;;;3.30;3.00;;;;;;;;;;5065681;28;20248;-65
2022/07/19 07:16:19;;;;;;;3.37;2.90;;;;;;;;;;5043834;28;22454;-64
2022/07/19 07:18:49;;;;;;;3.50;3.10;;;;;;;;;;5031794;28;20187;-65
2022/07/19 07:21:17;;;;;;;6.47;3.30;;;;;;;;;;5047970;28;20183;-62
2022/07/19 07:23:47;;;;;;;4.27;3.27;;;;;;;;;;5046597;28;20214;-62
2022/07/19 07:26:17;;;;;;;4.07;3.00;;;;;;;;;;5038190;28;20198;-63
2022/07/19 07:28:49;;;;;;;3.33;3.00;;;;;;;;;;5051007;28;20210;-63
2022/07/19 07:31:20;;;;;;;4.47;3.10;;;;;;;;;;5036733;28;20190;-64
2022/07/19 07:34:02;;;;;;;5.93;3.07;;;;;;;;;;5020806;28;20230;-63
2022/07/19 07:36:35;;;;;;;3.57;3.27;;;;;;;;;;5024464;28;20211;-63
2022/07/19 07:39:06;;;;;;;5.53;3.27;;;;;;;;;;5051662;28;20213;-63
2022/07/19 07:41:35;;;;;;;3.27;2.67;;;;;;;;;;5049274;28;20210;-65
2022/07/19 07:44:10;;;;;;;3.33;2.90;;;;;;;;;;5047476;28;20229;-65
2022/07/19 07:46:40;;;;;;;3.20;2.90;;;;;;;;;;5031358;28;20234;-64
2022/07/19 07:49:10;;;;;;;3.17;2.40;;;;;;;;;;5051957;28;20284;-64
2022/07/19 07:51:38;;;;;;;3.30;2.90;;;;;;;;;;5048964;28;20230;-65
2022/07/19 07:54:14;;;;;;;4.30;2.70;;;;;;;;;;5033594;28;20233;-65
2022/07/19 07:56:48;;;;;;;3.17;2.60;;;;;;;;;;5052841;28;20280;-61
2022/07/19 07:59:20;;;;;;;3.87;3.20;;;;;;;;;;5033343;28;20674;-62
2022/07/19 08:01:50;;;;;;;3.47;3.17;;;;;;;;;;5055075;28;20206;-64
2022/07/19 08:04:25;;;;;;;3.73;2.77;;;;;;;;;;5043577;28;20220;-64
2022/07/19 08:07:00;;;;;;;2.97;2.70;;;;;;;;;;5057696;28;20214;-62
2022/07/19 08:09:32;;;;;;;3.47;2.77;;;;;;;;;;5048315;28;20190;-62
2022/07/19 08:12:06;;;;;;;2.67;2.43;;;;;;;;;;5054818;28;20201;-63
2022/07/19 08:14:37;;;;;;;3.67;2.70;;;;;;;;;;5055942;28;20203;-63
2022/07/19 08:17:08;;;;;;;3.73;2.93;;;;;;;;;;5051118;28;20222;-63
2022/07/19 08:19:40;;;;;;;2.90;2.70;;;;;;;;;;5049831;28;20205;-63
2022/07/19 08:22:09;;;;;;;2.90;2.60;;;;;;;;;;5046867;28;20281;-64
2022/07/19 08:24:41;;;;;;;5.30;2.77;;;;;;;;;;5034648;28;20442;-64
2022/07/19 08:27:10;;;;;;;3.10;2.80;;;;;;;;;;5049470;28;20214;-63
2022/07/19 08:29:42;;;;;;;2.80;2.60;;;;;;;;;;5043669;28;20315;-63
2022/07/19 08:32:13;;;;;;;3.00;2.70;;;;;;;;;;5036335;28;20783;-62
2022/07/19 08:34:41;;;;;;;3.20;2.83;;;;;;;;;;5037795;28;20619;-63
2022/07/19 08:37:16;;;;;;;3.23;2.77;;;;;;;;;;5019616;28;20205;-62
2022/07/19 08:39:47;;;;;;;3.30;2.80;;;;;;;;;;5045712;28;20218;-62
2022/07/19 08:42:34;;;;;;;3.93;2.47;;;;;;;;;;5033302;28;20190;-63
2022/07/19 08:45:04;;;;;;;6.47;2.90;;;;;;;;;;5056833;28;20202;-63
2022/07/19 08:47:36;;;;;;;3.20;2.80;;;;;;;;;;5039801;28;20217;-64
2022/07/19 08:50:11;;;;;;;3.03;2.50;;;;;;;;;;5030233;28;20204;-62
2022/07/19 08:52:50;;;;;;;3.77;2.73;;;;;;;;;;5032221;28;20208;-63
2022/07/19 08:55:18;;;;;;;2.93;2.70;;;;;;;;;;5047348;28;20192;-64
2022/07/19 08:58:04;;;;;;;3.10;2.80;;;;;;;;;;5032379;28;20644;-64
2022/07/19 09:00:37;;;;;;;3.50;2.77;;;;;;;;;;5045873;28;20752;-62
2022/07/19 09:03:09;;;;;;;3.77;2.83;;;;;;;;;;5021638;28;20202;-62
2022/07/19 09:05:41;;;;;;;3.63;2.83;;;;;;;;;;5043514;28;20225;-64
2022/07/19 09:08:17;;;;;;;4.60;2.67;;;;;;;;;;5046984;28;20272;-64
2022/07/19 09:11:14;;;;;;;3.13;2.50;;;;;;;;;;5037937;28;20820;-62
2022/07/19 09:13:37;;;;;;;4.40;2.83;;;;;;;;;;5045774;28;20189;-62
2022/07/19 09:16:08;;;;;;;5.23;2.70;;;;;;;;;;5028256;28;20201;-62
2022/07/19 09:19:03;;;;;;;3.87;2.80;;;;;;;;;;5047711;28;20229;-62
2022/07/19 09:21:53;;;;;;;3.90;2.57;;;;;;;;;;5049852;28;20205;-63
2022/07/19 09:24:26;;;;;;;4.97;2.53;;;;;;;;;;5041025;28;20635;-63
2022/07/19 09:27:09;;;;;;;4.83;3.00;;;;;;;;;;5047230;28;20245;-62
2022/07/19 09:29:42;;;;;;;3.47;2.70;;;;;;;;;;5027090;28;20197;-62
2022/07/19 09:32:17;;;;;;;3.33;2.60;;;;;;;;;;5034089;28;20221;-64
2022/07/19 09:34:51;;;;;;;4.07;2.57;;;;;;;;;;5025236;28;20197;-64
2022/07/19 09:37:22;;;;;;;3.47;2.83;;;;;;;;;;5044581;28;20206;-63
2022/07/19 09:39:59;;;;;;;3.73;2.90;;;;;;;;;;5049684;28;20252;-63
2022/07/19 09:42:39;;;;;;;3.97;2.60;;;;;;;;;;5048539;28;20200;-63
2022/07/19 09:45:11;;;;;;;4.63;2.83;;;;;;;;;;5048425;28;20199;-64
2022/07/19 09:47:44;;;;;;;4.27;3.00;;;;;;;;;;5033662;28;20217;-64
2022/07/19 09:50:16;;;;;;;4.57;2.80;;;;;;;;;;5026555;28;20195;-64
2022/07/19 09:53:07;;;;;;;3.43;2.60;;;;;;;;;;5046451;28;20245;-64
2022/07/19 09:55:35;;;;;;;5.13;2.90;;;;;;;;;;5027377;28;20189;-63
2022/07/19 09:58:06;;;;;;;4.23;2.70;;;;;;;;;;5028052;28;20222;-63
2022/07/19 10:00:37;;;;;;;5.80;2.73;;;;;;;;;;5032561;28;20189;-63
2022/07/19 10:03:11;;;;;;;3.27;2.73;;;;;;;;;;5028958;28;20632;-63
2022/07/19 10:05:42;;;;;;;3.77;2.70;;;;;;;;;;5041753;28;20222;-65
2022/07/19 10:08:17;;;;;;;5.50;2.80;;;;;;;;;;5030985;28;20217;-65
2022/07/19 10:10:52;;;;;;;4.03;3.00;;;;;;;;;;5038096;28;20193;-65
2022/07/19 10:13:22;;;;;;;5.53;3.13;;;;;;;;;;5054321;28;20189;-65
2022/07/19 10:15:55;;;;;;;4.60;3.07;;;;;;;;;;5054491;28;20244;-65
2022/07/19 10:18:37;;;;;;;3.97;3.23;;;;;;;;;;5032827;28;20219;-65
2022/07/19 10:21:12;;;;;;;4.10;2.90;;;;;;;;;;5055016;28;20200;-65
2022/07/19 10:23:53;;;;;;;4.17;2.80;;;;;;;;;;5032399;28;20210;-65
2022/07/19 10:26:41;;;;;;;3.53;2.90;;;;;;;;;;5034028;28;20194;-64
2022/07/19 10:29:17;;;;;;;4.40;3.20;;;;;;;;;;5035239;28;20219;-65
2022/07/19 10:32:03;;;;;;;3.60;3.27;;;;;;;;;;5032525;28;20836;-64
2022/07/19 10:34:33;;;;;;;4.23;2.90;;;;;;;;;;5046922;28;20190;-64
2022/07/19 10:37:03;;;;;;;3.40;2.80;;;;;;;;;;5051026;28;20597;-64
2022/07/19 10:39:39;;;;;;;4.03;2.90;;;;;;;;;;5006419;28;20203;-64
2022/07/19 10:42:16;;;;;;;5.03;2.80;;;;;;;;;;5044470;28;20206;-63
2022/07/19 10:45:15;;;;;;;3.97;2.57;;;;;;;;;;5046560;28;20206;-64
2022/07/19 10:47:49;;;;;;;3.63;2.73;;;;;;;;;;5048253;28;20721;-68
2022/07/19 10:50:21;;;;;;;4.27;2.80;;;;;;;;;;5045634;28;20675;-62
2022/07/19 10:52:53;;;;;;;4.93;2.80;;;;;;;;;;5043013;28;20214;-62
2022/07/19 10:55:30;;;;;;;4.00;2.80;;;;;;;;;;5051763;28;20195;-62
2022/07/19 10:58:11;;;;;;;4.00;2.67;;;;;;;;;;5051910;28;20209;-62
2022/07/19 11:00:46;;;;;;;4.73;2.60;;;;;;;;;;5050010;28;20205;-63
2022/07/19 11:03:28;;;;;;;2.53;2.33;;;;;;;;;;5041240;28;20214;-63
2022/07/19 11:06:00;;;;;;;5.03;2.93;;;;;;;;;;5047226;28;20229;-64
2022/07/19 11:08:41;;;;;;;2.93;2.40;;;;;;;;;;5043443;28;20203;-64
2022/07/19 11:11:14;;;;;;;4.13;2.80;;;;;;;;;;5035512;28;20847;-65
2022/07/19 11:13:59;;;;;;;2.60;2.20;;;;;;;;;;5029384;28;20186;-65
2022/07/19 11:16:31;;;;;;;4.53;2.70;;;;;;;;;;5021686;28;20216;-65
2022/07/19 11:19:08;;;;;;;3.57;2.53;;;;;;;;;;5055533;28;20213;-65
2022/07/19 11:21:37;;;;;;;4.30;2.77;;;;;;;;;;5009352;28;20243;-62
2022/07/19 11:24:09;;;;;;;3.67;2.80;;;;;;;;;;5029317;28;20206;-62
2022/07/19 11:26:44;;;;;;;2.97;2.40;;;;;;;;;;5048626;28;20202;-64
2022/07/19 11:29:16;;;;;;;3.67;2.40;;;;;;;;;;5033220;28;20276;-64
2022/07/19 11:31:50;;;;;;;2.70;2.20;;;;;;;;;;5039716;28;20202;-64
2022/07/19 11:34:25;;;;;;;6.33;2.77;;;;;;;;;;5045011;28;20190;-65
2022/07/19 11:36:58;;;;;;;3.50;2.63;;;;;;;;;;5048500;28;20515;-64
2022/07/19 11:39:45;;;;;;;2.77;2.50;;;;;;;;;;5032043;28;20204;-65
2022/07/19 11:42:16;;;;;;;3.07;2.07;;;;;;;;;;5043790;28;20278;-63
2022/07/19 11:44:49;;;;;;;2.83;2.40;;;;;;;;;;5051459;28;20198;-63
2022/07/19 11:47:21;;;;;;;3.87;2.53;;;;;;;;;;5047752;28;20551;-62
2022/07/19 11:50:17;;;;;;;2.77;2.57;;;;;;;;;;5051862;28;20293;-64
2022/07/19 11:53:01;;;;;;;4.50;2.43;;;;;;;;;;5032799;28;20560;-65
2022/07/19 11:55:48;;;;;;;2.83;2.17;;;;;;;;;;5050025;28;20195;-65
2022/07/19 11:58:21;;;;;;;3.13;2.60;;;;;;;;;;5047256;28;20217;-65
2022/07/19 12:00:50;;;;;;;3.30;2.60;;;;;;;;;;5049555;28;20197;-68
2022/07/19 12:03:18;;;;;;;3.23;2.37;;;;;;;;;;5052839;28;20218;-63
2022/07/19 12:06:03;;;;;;;2.57;2.37;;;;;;;;;;5046778;28;20659;-62
2022/07/19 12:08:45;;;;;;;3.93;2.63;;;;;;;;;;5050432;28;20238;-62
2022/07/19 12:11:27;;;;;;;2.83;2.53;;;;;;;;;;5058156;28;20198;-64
2022/07/19 12:14:00;;;;;;;3.60;2.60;;;;;;;;;;5052477;28;20226;-63
2022/07/19 12:16:29;;;;;;;3.30;2.40;;;;;;;;;;5023357;28;20638;-64
2022/07/19 12:19:10;;;;;;;4.97;2.47;;;;;;;;;;5032865;28;20263;-64
2022/07/19 12:21:46;;;;;;;2.60;2.30;;;;;;;;;;5027644;28;20206;-65
2022/07/19 12:24:24;;;;;;;2.80;2.50;;;;;;;;;;5046097;28;20222;-65
2022/07/19 12:27:09;;;;;;;2.70;2.23;;;;;;;;;;5034818;28;20288;-62
2022/07/19 12:29:50;;;;;;;3.53;2.20;;;;;;;;;;5045996;28;20579;-63
2022/07/19 12:32:29;;;;;;;3.07;2.53;;;;;;;;;;5037008;28;20294;-62
2022/07/19 12:35:05;;;;;;;3.30;2.50;;;;;;;;;;5040965;28;20186;-62
2022/07/19 12:37:42;;;;;;;3.13;2.43;;;;;;;;;;5046673;28;20198;-64
2022/07/19 12:40:19;;;;;;;4.47;2.20;;;;;;;;;;5039402;28;20190;-64
2022/07/19 12:43:00;;;;;;;2.87;2.20;;;;;;;;;;5048030;28;20228;-64
2022/07/19 12:45:44;;;;;;;2.93;2.40;;;;;;;;;;5051895;28;20213;-64
2022/07/19 12:48:16;;;;;;;3.20;2.57;;;;;;;;;;5043865;28;20202;-64
2022/07/19 12:50:50;;;;;;;3.27;2.20;;;;;;;;;;5050197;28;20703;-64
2022/07/19 12:53:23;;;;;;;2.83;2.40;;;;;;;;;;5036495;28;20210;-64
2022/07/19 12:56:01;;;;;;;3.60;2.30;;;;;;;;;;5024864;28;20186;-64
2022/07/19 13:01:24;;;;;;;2.20;2.00;;;;;;;;;;5048342;28;20200;-64
2022/07/19 13:03:52;;;;;;;3.30;2.13;;;;;;;;;;5045437;28;20218;-64
2022/07/19 13:06:21;;;;;;;2.77;1.90;;;;;;;;;;5054510;28;20691;-64
2022/07/19 13:08:54;;;;;;;2.80;2.23;;;;;;;;;;5031638;28;20225;-65
2022/07/19 13:11:28;;;;;;;3.63;2.20;;;;;;;;;;5047646;28;20214;-63
2022/07/19 13:14:01;;;;;;;2.70;2.13;;;;;;;;;;5011176;28;20198;-64
2022/07/19 13:16:33;;;;;;;2.30;2.00;;;;;;;;;;5043280;28;20214;-63
2022/07/19 13:19:04;;;;;;;2.97;2.00;;;;;;;;;;5044569;28;20195;-62
2022/07/19 13:21:49;;;;;;;3.17;2.10;;;;;;;;;;5014547;28;20285;-64
2022/07/19 13:24:21;;;;;;;2.50;2.30;;;;;;;;;;5048634;28;20205;-64
2022/07/19 13:27:08;;;;;;;4.70;2.37;;;;;;;;;;5037330;28;20347;-64
2022/07/19 13:29:38;;;;;;;3.57;2.47;;;;;;;;;;5042424;28;20238;-64
2022/07/19 13:32:09;;;;;;;3.43;2.70;;;;;;;;;;5030724;28;20195;-64
2022/07/19 13:34:45;;;;;;;2.40;2.07;;;;;;;;;;5047706;28;20189;-62
2022/07/19 13:37:18;;;;;;;3.63;2.40;;;;;;;;;;5041419;28;20205;-64
2022/07/19 13:39:49;;;;;;;4.23;2.30;;;;;;;;;;5042142;28;20213;-64
2022/07/19 13:42:16;;;;;;;5.03;2.53;;;;;;;;;;5015928;28;20230;-64
2022/07/19 13:44:45;;;;;;;3.50;2.43;;;;;;;;;;5026075;28;20268;-64
2022/07/19 13:47:18;;;;;;;4.60;2.30;;;;;;;;;;5045294;28;20194;-64
2022/07/19 13:49:49;;;;;;;3.37;2.37;;;;;;;;;;5049085;28;20318;-64
2022/07/19 13:52:22;;;;;;;5.37;2.70;;;;;;;;;;5042225;28;20238;-64
2022/07/19 13:54:52;;;;;;;3.07;2.60;;;;;;;;;;5045496;28;20307;-64
2022/07/19 13:57:22;;;;;;;3.43;2.60;;;;;;;;;;5038443;28;20310;-63
2022/07/19 13:59:57;;;;;;;2.40;2.20;;;;;;;;;;5018164;28;20218;-62
2022/07/19 14:02:28;;;;;;;2.63;2.43;;;;;;;;;;5046094;28;20194;-63
2022/07/19 14:05:01;;;;;;;2.80;2.17;;;;;;;;;;5041077;28;20202;-63
2022/07/19 14:07:35;;;;;;;4.17;2.40;;;;;;;;;;5046324;28;20607;-63
2022/07/19 14:10:08;;;;;;;2.73;2.47;;;;;;;;;;5048157;28;20222;-63
2022/07/19 14:12:40;;;;;;;3.77;2.57;;;;;;;;;;5033746;28;20205;-62
2022/07/19 14:15:10;;;;;;;4.27;2.60;;;;;;;;;;5043785;28;20186;-64
2022/07/19 14:17:40;;;;;;;2.87;2.30;;;;;;;;;;5043491;28;20207;-65
2022/07/19 14:20:15;;;;;;;2.63;2.13;;;;;;;;;;5040453;28;20278;-64
2022/07/19 14:22:52;;;;;;;3.27;2.70;;;;;;;;;;5024530;28;20205;-64
2022/07/19 14:25:22;;;;;;;3.13;2.43;;;;;;;;;;5027939;28;20229;-64
2022/07/19 14:27:51;;;;;;;5.60;2.20;;;;;;;;;;5045163;28;20202;-65
2022/07/19 14:30:24;;;;;;;3.30;2.23;;;;;;;;;;5033457;28;20679;-65
2022/07/19 14:32:54;;;;;;;3.63;2.70;;;;;;;;;;5039995;28;20691;-64
2022/07/19 14:35:24;;;;;;;2.77;2.57;;;;;;;;;;5031013;28;20209;-63
2022/07/19 14:37:57;;;;;;;4.30;2.50;;;;;;;;;;5046378;28;20830;-63
2022/07/19 14:40:39;;;;;;;3.27;2.30;;;;;;;;;;5038878;28;20245;-64
2022/07/19 14:43:08;;;;;;;2.63;2.37;;;;;;;;;;5045224;28;20194;-65
2022/07/19 14:45:38;;;;;;;4.67;2.27;;;;;;;;;;5027757;28;20239;-64
2022/07/19 14:48:12;;;;;;;3.10;2.50;;;;;;;;;;5027056;28;20291;-64
2022/07/19 14:50:58;;;;;;;4.43;2.70;;;;;;;;;;5047259;28;20702;-64
2022/07/19 14:53:29;;;;;;;2.77;2.30;;;;;;;;;;5042562;28;20260;-64
2022/07/19 14:55:56;;;;;;;4.33;2.53;;;;;;;;;;5042526;28;20264;-64
2022/07/19 14:58:27;;;;;;;2.90;2.27;;;;;;;;;;5045826;28;20190;-64
2022/07/19 15:00:57;;;;;;;3.13;2.50;;;;;;;;;;5043965;28;20195;-65
2022/07/19 15:03:25;;;;;;;3.73;2.40;;;;;;;;;;5028764;28;20290;-65
2022/07/19 15:05:54;;;;;;;3.93;2.40;;;;;;;;;;5041387;28;20651;-64
2022/07/19 15:08:26;;;;;;;3.03;2.17;;;;;;;;;;5046212;28;20218;-64
2022/07/19 15:10:57;;;;;;;5.43;2.53;;;;;;;;;;5053768;28;20248;-65
2022/07/19 15:13:58;;;;;;;6.43;2.50;;;;;;;;;;5049887;28;20227;-65
2022/07/19 15:16:29;;;;;;;3.20;2.80;;;;;;;;;;5043301;28;20206;-65
2022/07/19 15:19:00;;;;;;;3.73;2.60;;;;;;;;;;5050450;28;20194;-65
2022/07/19 15:21:33;;;;;;;3.43;2.53;;;;;;;;;;5058197;28;20193;-65
2022/07/19 15:24:18;;;;;;;3.17;2.30;;;;;;;;;;5020678;28;20638;-65
2022/07/19 15:26:49;;;;;;;2.73;2.37;;;;;;;;;;5035266;28;20198;-64